createdAt,value
2022-11-16T00:01:19.411Z,50.37
2022-11-16T00:03:52.427Z,46.13
2022-11-16T00:06:23.681Z,40.50
2022-11-16T00:09:16.657Z,49.23
2022-11-16T00:11:46.365Z,43.57
2022-11-16T00:14:14.847Z,48.53
2022-11-16T00:16:43.646Z,55.20
2022-11-16T00:19:13.834Z,60.60
2022-11-16T00:21:42.538Z,66.60
2022-11-16T00:24:14.793Z,190.87
2022-11-16T00:26:43.889Z,97.13
2022-11-16T00:29:16.477Z,93.60
2022-11-16T00:31:46.311Z,101.40
2022-11-16T00:34:16.561Z,126.30
2022-11-16T00:36:45.867Z,87.57
2022-11-16T00:39:15.993Z,88.77
2022-11-16T00:41:45.022Z,113.83
2022-11-16T00:44:13.790Z,125.70
2022-11-16T00:46:42.983Z,121.90
2022-11-16T00:49:11.870Z,65.83
2022-11-16T00:51:42.071Z,130.30
2022-11-16T00:54:11.564Z,66.57
2022-11-16T00:56:41.606Z,68.17
2022-11-16T00:59:10.205Z,56.80
2022-11-16T01:01:40.051Z,67.63
2022-11-16T01:04:08.725Z,58.93
2022-11-16T01:06:37.829Z,83.07
2022-11-16T01:09:07.859Z,104.77
2022-11-16T01:11:54.231Z,79.40
2022-11-16T01:14:22.898Z,128.90
2022-11-16T01:16:51.984Z,59.00
2022-11-16T01:19:22.540Z,73.33
2022-11-16T01:21:51.122Z,84.63
2022-11-16T01:24:21.048Z,90.37
2022-11-16T01:26:49.482Z,67.30
2022-11-16T01:29:18.732Z,92.17
2022-11-16T01:31:53.910Z,114.00
2022-11-16T01:34:22.653Z,87.87
2022-11-16T01:36:52.345Z,93.60
2022-11-16T01:39:22.511Z,72.40
2022-11-16T01:41:55.113Z,81.87
2022-11-16T01:45:09.292Z,73.37
2022-11-16T01:47:38.293Z,71.37
2022-11-16T01:50:14.363Z,85.37
2022-11-16T01:52:53.472Z,109.90
2022-11-16T01:55:25.912Z,90.00
2022-11-16T01:58:23.089Z,109.93
2022-11-16T02:00:57.819Z,66.17
2022-11-16T02:03:41.482Z,84.80
2022-11-16T02:06:31.638Z,131.70
2022-11-16T02:09:58.263Z,123.00
2022-11-16T02:13:07.942Z,107.43
2022-11-16T02:15:50.471Z,87.10
2022-11-16T02:18:38.768Z,68.57
2022-11-16T02:21:34.183Z,118.23
2022-11-16T02:24:44.789Z,106.90
2022-11-16T02:28:04.504Z,90.03
2022-11-16T02:30:37.537Z,80.57
2022-11-16T02:33:13.786Z,109.93
2022-11-16T02:35:48.681Z,98.57
2022-11-16T02:38:22.468Z,67.63
2022-11-16T02:40:58.746Z,158.97
2022-11-16T02:43:36.767Z,68.67
2022-11-16T02:46:17.733Z,138.93
2022-11-16T02:48:54.323Z,104.43
2022-11-16T02:51:25.604Z,70.23
2022-11-16T02:54:04.040Z,64.30
2022-11-16T02:56:48.790Z,102.63
2022-11-16T02:59:22.314Z,89.37
2022-11-16T03:02:01.077Z,154.63
2022-11-16T03:04:38.870Z,93.40
2022-11-16T03:07:13.836Z,55.73
2022-11-16T03:09:45.712Z,128.67
2022-11-16T03:12:22.660Z,84.30
2022-11-16T03:14:56.572Z,110.60
2022-11-16T03:17:32.839Z,123.33
2022-11-16T03:20:07.380Z,73.40
2022-11-16T03:22:43.287Z,180.07
2022-11-16T03:25:15.616Z,156.57
2022-11-16T03:27:55.538Z,108.97
2022-11-16T03:30:30.402Z,124.83
2022-11-16T03:33:13.119Z,164.70
2022-11-16T03:35:50.530Z,112.47
2022-11-16T03:38:24.149Z,84.40
2022-11-16T03:40:59.365Z,118.53
2022-11-16T03:43:29.195Z,112.90
2022-11-16T03:45:59.020Z,74.07
2022-11-16T03:48:36.715Z,79.80
2022-11-16T03:51:12.335Z,144.37
2022-11-16T03:53:42.814Z,68.63
2022-11-16T03:56:13.882Z,69.27
2022-11-16T03:58:42.521Z,88.03
2022-11-16T04:01:11.191Z,107.47
2022-11-16T04:03:42.262Z,61.93
2022-11-16T04:06:29.940Z,114.43
2022-11-16T04:09:24.556Z,153.70
2022-11-16T04:12:11.319Z,141.73
2022-11-16T04:14:58.274Z,112.40
2022-11-16T04:17:47.370Z,81.07
2022-11-16T04:20:35.858Z,92.23
2022-11-16T04:23:27.607Z,115.80
2022-11-16T04:25:57.548Z,75.30
2022-11-16T04:28:31.754Z,115.07
2022-11-16T04:31:23.358Z,99.77
2022-11-16T04:34:35.779Z,106.13
2022-11-16T04:37:37.773Z,95.47
2022-11-16T04:40:09.570Z,90.30
2022-11-16T04:42:38.180Z,89.63
2022-11-16T04:45:25.916Z,69.27
2022-11-16T04:47:55.535Z,94.10
2022-11-16T04:50:29.421Z,77.83
2022-11-16T04:53:00.365Z,92.53
2022-11-16T04:55:30.054Z,104.40
2022-11-16T04:58:00.359Z,96.60
2022-11-16T05:00:29.530Z,85.70
2022-11-16T05:03:01.204Z,91.33
2022-11-16T05:05:31.110Z,75.83
2022-11-16T05:08:02.518Z,91.83
2022-11-16T05:10:33.362Z,76.23
2022-11-16T05:13:02.533Z,84.57
2022-11-16T05:15:31.188Z,78.97
2022-11-16T05:18:01.345Z,74.63
2022-11-16T05:20:48.721Z,75.87
2022-11-16T05:23:36.604Z,67.23
2022-11-16T05:26:10.728Z,74.17
2022-11-16T05:28:40.074Z,69.47
2022-11-16T05:31:10.529Z,75.13
2022-11-16T05:33:39.159Z,64.17
2022-11-16T05:36:09.531Z,60.67
2022-11-16T05:38:39.708Z,67.47
2022-11-16T05:41:08.314Z,72.30
2022-11-16T05:43:36.968Z,74.60
2022-11-16T05:46:15.006Z,77.77
2022-11-16T05:48:43.619Z,66.40
2022-11-16T05:51:12.300Z,66.67
2022-11-16T05:53:42.705Z,53.50
2022-11-16T05:56:14.304Z,65.03
2022-11-16T05:58:45.247Z,69.73
2022-11-16T06:01:14.096Z,52.43
2022-11-16T06:03:43.456Z,55.97
2022-11-16T06:06:12.880Z,56.37
2022-11-16T06:08:42.917Z,48.53
2022-11-16T06:11:15.854Z,55.60
2022-11-16T06:13:45.391Z,65.93
2022-11-16T06:16:14.855Z,52.83
2022-11-16T06:18:48.248Z,45.83
2022-11-16T06:21:20.589Z,56.27
2022-11-16T06:23:51.121Z,70.20
2022-11-16T06:26:19.848Z,49.73
2022-11-16T06:28:50.223Z,54.90
2022-11-16T06:31:19.167Z,65.90
2022-11-16T06:33:47.833Z,61.90
2022-11-16T06:36:27.299Z,51.70
2022-11-16T06:38:59.548Z,72.70
2022-11-16T06:41:29.328Z,62.60
2022-11-16T06:43:58.238Z,49.17
2022-11-16T06:46:32.710Z,41.93
2022-11-16T06:49:01.596Z,43.27
2022-11-16T06:51:30.360Z,38.77
2022-11-16T06:54:01.759Z,40.10
2022-11-16T06:56:30.785Z,35.97
2022-11-16T06:59:00.468Z,44.53
2022-11-16T07:01:31.693Z,37.87
2022-11-16T07:04:11.914Z,41.60
2022-11-16T07:06:42.417Z,40.83
2022-11-16T07:09:15.086Z,51.60
2022-11-16T07:11:45.596Z,43.97
2022-11-16T07:14:16.064Z,50.17
2022-11-16T07:16:45.699Z,46.50
2022-11-16T07:19:14.732Z,51.20
2022-11-16T07:21:44.871Z,43.53
2022-11-16T07:24:19.192Z,39.77
2022-11-16T07:26:48.780Z,46.07
2022-11-16T07:29:22.532Z,41.10
2022-11-16T07:32:11.764Z,47.67
2022-11-16T07:35:00.463Z,50.47
2022-11-16T07:37:31.440Z,44.73
2022-11-16T07:40:01.955Z,45.73
2022-11-16T07:42:31.993Z,52.97
2022-11-16T07:45:23.587Z,45.03
2022-11-16T07:48:00.057Z,44.63
2022-11-16T07:50:54.905Z,44.37
2022-11-16T07:53:24.558Z,53.50
2022-11-16T07:55:55.746Z,43.87
2022-11-16T07:58:28.028Z,41.60
2022-11-16T08:01:05.787Z,35.90
2022-11-16T08:03:37.059Z,42.07
2022-11-16T08:06:12.804Z,54.97
2022-11-16T08:08:41.814Z,37.97
2022-11-16T08:11:13.720Z,47.37
2022-11-16T08:13:44.463Z,41.70
2022-11-16T08:16:16.621Z,39.47
2022-11-16T08:18:48.179Z,35.20
2022-11-16T08:21:19.707Z,37.57
2022-11-16T08:23:48.756Z,41.13
2022-11-16T08:26:22.133Z,41.17
2022-11-16T08:28:59.989Z,46.30
2022-11-16T08:31:33.035Z,38.10
2022-11-16T08:34:09.382Z,36.90
2022-11-16T08:36:44.393Z,32.70
2022-11-16T08:39:14.019Z,30.70
2022-11-16T08:41:44.422Z,28.97
2022-11-16T08:44:15.408Z,28.83
2022-11-16T08:46:47.261Z,31.20
2022-11-16T08:49:28.897Z,31.87
2022-11-16T08:51:57.917Z,32.57
2022-11-16T08:54:28.976Z,28.57
2022-11-16T08:56:59.438Z,28.73
2022-11-16T08:59:29.849Z,30.30
2022-11-16T09:02:04.627Z,30.47
2022-11-16T09:04:36.983Z,30.10
2022-11-16T09:07:05.935Z,30.03
2022-11-16T09:09:34.912Z,36.33
2022-11-16T09:12:05.242Z,27.80
2022-11-16T09:14:33.832Z,29.67
2022-11-16T09:17:02.618Z,32.47
2022-11-16T09:19:31.185Z,38.53
2022-11-16T09:22:00.112Z,25.17
2022-11-16T09:24:28.724Z,34.10
2022-11-16T09:27:01.525Z,32.57
2022-11-16T09:29:31.454Z,29.43
2022-11-16T09:32:00.648Z,23.40
2022-11-16T09:34:29.368Z,21.60
2022-11-16T09:36:57.959Z,22.00
2022-11-16T09:39:31.060Z,23.63
2022-11-16T09:42:22.787Z,20.30
2022-11-16T09:45:20.459Z,18.93
2022-11-16T09:47:52.917Z,20.20
2022-11-16T09:50:43.187Z,23.53
2022-11-16T09:53:33.903Z,16.27
2022-11-16T09:56:10.899Z,17.03
2022-11-16T09:58:50.967Z,19.27
2022-11-16T10:01:28.583Z,22.13
2022-11-16T10:04:08.581Z,20.23
2022-11-16T10:06:51.135Z,25.57
2022-11-16T10:09:20.355Z,24.33
2022-11-16T10:12:11.550Z,17.30
2022-11-16T10:15:23.544Z,17.23
2022-11-16T10:18:10.129Z,19.57
2022-11-16T10:21:37.406Z,20.50
2022-11-16T10:24:43.484Z,23.70
2022-11-16T10:27:45.228Z,19.90
2022-11-16T10:30:18.094Z,18.10
2022-11-16T10:32:52.140Z,19.30
2022-11-16T10:35:30.764Z,16.00
2022-11-16T10:38:04.036Z,17.67
2022-11-16T10:40:39.953Z,17.77
2022-11-16T10:43:15.528Z,18.50
2022-11-16T10:45:55.991Z,19.10
2022-11-16T10:48:37.492Z,18.10
2022-11-16T10:51:11.054Z,20.30
2022-11-16T10:53:42.558Z,18.83
2022-11-16T10:56:23.191Z,17.20
2022-11-16T10:58:58.582Z,17.67
2022-11-16T11:01:37.286Z,18.07
2022-11-16T11:04:23.641Z,18.53
2022-11-16T11:06:56.785Z,15.93
2022-11-16T11:09:31.479Z,15.47
2022-11-16T11:12:34.933Z,19.63
2022-11-16T11:15:26.285Z,15.80
2022-11-16T11:18:29.732Z,16.37
2022-11-16T11:21:14.030Z,14.80
2022-11-16T11:23:48.865Z,17.40
2022-11-16T11:26:37.219Z,16.80
2022-11-16T11:29:24.818Z,18.00
2022-11-16T11:31:56.330Z,18.03
2022-11-16T11:34:28.764Z,17.40
2022-11-16T11:37:02.547Z,14.20
2022-11-16T11:39:36.074Z,15.57
2022-11-16T11:42:23.529Z,14.27
2022-11-16T11:44:59.724Z,16.23
2022-11-16T11:47:57.793Z,16.00
2022-11-16T11:50:51.078Z,17.77
2022-11-16T11:53:48.514Z,16.63
2022-11-16T11:56:20.558Z,18.57
2022-11-16T11:58:53.639Z,15.73
2022-11-16T12:02:07.448Z,13.87
2022-11-16T12:05:47.203Z,14.30
2022-11-16T12:08:39.617Z,14.83
2022-11-16T12:11:17.335Z,15.17
2022-11-16T12:14:05.771Z,15.33
2022-11-16T12:16:44.106Z,12.63
2022-11-16T12:19:41.503Z,13.97
2022-11-16T12:22:36.859Z,14.43
2022-11-16T12:25:22.924Z,15.40
2022-11-16T12:28:11.900Z,16.37
2022-11-16T12:31:14.943Z,14.40
2022-11-16T12:33:59.252Z,16.10
2022-11-16T12:36:45.604Z,14.67
2022-11-16T12:39:25.384Z,16.53
2022-11-16T12:42:32.866Z,14.40
2022-11-16T12:45:32.955Z,19.10
2022-11-16T12:48:52.348Z,13.37
2022-11-16T12:51:42.690Z,14.67
2022-11-16T12:55:11.036Z,15.23
2022-11-16T12:57:46.511Z,15.30
2022-11-16T13:00:17.659Z,14.00
2022-11-16T13:03:20.064Z,25.97
2022-11-16T13:06:01.400Z,15.10
2022-11-16T13:08:46.640Z,15.63
2022-11-16T13:11:25.427Z,16.43
2022-11-16T13:14:02.176Z,14.60
2022-11-16T13:16:30.869Z,15.70
2022-11-16T13:19:04.731Z,15.60
2022-11-16T13:21:48.983Z,13.73
2022-11-16T13:24:31.669Z,13.50
2022-11-16T13:27:23.042Z,17.30
2022-11-16T13:30:00.475Z,14.27
2022-11-16T13:32:50.468Z,14.47
2022-11-16T13:35:21.042Z,16.30
2022-11-16T13:37:52.039Z,17.80
2022-11-16T13:40:30.553Z,17.30
2022-11-16T13:43:19.713Z,19.40
2022-11-16T13:46:00.426Z,18.10
2022-11-16T13:48:35.233Z,14.83
2022-11-16T13:51:09.357Z,16.70
2022-11-16T13:56:50.975Z,15.73
2022-11-16T13:59:28.259Z,14.77
2022-11-16T14:02:00.659Z,15.30
2022-11-16T14:04:57.896Z,14.63
2022-11-16T14:07:40.572Z,14.50
2022-11-16T14:10:10.261Z,14.40
2022-11-16T14:12:58.191Z,16.50
2022-11-16T14:15:33.889Z,13.33
2022-11-16T14:18:37.199Z,22.40
2022-11-16T14:21:24.483Z,14.97
2022-11-16T14:24:28.575Z,14.10
2022-11-16T14:27:15.671Z,20.33
2022-11-16T14:30:03.804Z,15.70
2022-11-16T14:32:41.424Z,17.30
2022-11-16T14:35:29.592Z,16.30
2022-11-16T14:38:03.118Z,23.23
2022-11-16T14:40:44.495Z,16.33
2022-11-16T14:43:22.689Z,15.60
2022-11-16T14:46:00.396Z,16.13
2022-11-16T14:48:29.982Z,16.30
2022-11-16T14:51:09.445Z,21.20
2022-11-16T14:53:43.697Z,15.67
2022-11-16T14:56:16.485Z,22.80
2022-11-16T14:58:53.953Z,20.57
2022-11-16T15:01:27.687Z,25.23
2022-11-16T15:04:02.761Z,20.23
2022-11-16T15:06:37.865Z,24.03
2022-11-16T15:09:07.320Z,19.53
2022-11-16T15:11:58.740Z,17.10
2022-11-16T15:14:31.261Z,17.80
2022-11-16T15:17:01.343Z,18.13
2022-11-16T15:19:31.984Z,20.33
2022-11-16T15:22:04.504Z,16.27
2022-11-16T15:24:35.616Z,21.80
2022-11-16T15:27:36.644Z,19.20
2022-11-16T15:30:16.646Z,19.40
2022-11-16T15:32:47.665Z,20.93
2022-11-16T15:35:23.466Z,16.57
2022-11-16T15:38:08.262Z,19.53
2022-11-16T15:40:37.158Z,18.00
2022-11-16T15:43:08.869Z,21.60
2022-11-16T15:45:39.208Z,23.03
2022-11-16T15:48:08.300Z,24.43
2022-11-16T15:50:37.167Z,22.33
2022-11-16T15:53:05.784Z,21.90
2022-11-16T15:55:39.145Z,23.13
2022-11-16T15:58:22.279Z,20.97
2022-11-16T16:00:50.944Z,25.43
2022-11-16T16:03:25.151Z,22.00
2022-11-16T16:05:56.531Z,24.57
2022-11-16T16:08:29.924Z,27.00
2022-11-16T16:11:11.089Z,22.00
2022-11-16T16:13:44.640Z,29.60
2022-11-16T16:16:36.179Z,27.90
2022-11-16T16:19:09.946Z,27.63
2022-11-16T16:21:45.450Z,27.90
2022-11-16T16:24:41.359Z,30.47
2022-11-16T16:27:17.148Z,30.37
2022-11-16T16:29:48.905Z,25.73
2022-11-16T16:32:26.827Z,25.27
2022-11-16T16:34:58.096Z,25.77
2022-11-16T16:37:29.010Z,30.90
2022-11-16T16:39:57.854Z,24.37
2022-11-16T16:42:26.878Z,24.10
2022-11-16T16:45:00.396Z,23.60
2022-11-16T16:47:29.748Z,27.00
2022-11-16T16:49:58.367Z,27.77
2022-11-16T16:52:27.701Z,28.30
2022-11-16T16:54:56.246Z,47.60
2022-11-16T16:57:24.875Z,30.13
2022-11-16T16:59:53.503Z,31.60
2022-11-16T17:02:25.503Z,30.37
2022-11-16T17:04:54.084Z,37.40
2022-11-16T17:07:22.767Z,39.40
2022-11-16T17:09:51.504Z,29.93
2022-11-16T17:12:20.106Z,39.23
2022-11-16T17:14:52.302Z,33.00
2022-11-16T17:17:24.814Z,24.90
2022-11-16T17:19:53.934Z,27.47
2022-11-16T17:22:23.095Z,27.83
2022-11-16T17:24:51.638Z,37.77
2022-11-16T17:27:20.448Z,36.00
2022-11-16T17:29:49.185Z,41.97
2022-11-16T17:32:17.879Z,41.80
2022-11-16T17:34:48.867Z,47.70
2022-11-16T17:37:17.492Z,47.10
2022-11-16T17:39:46.060Z,30.57
2022-11-16T17:42:14.582Z,32.07
2022-11-16T17:44:44.126Z,31.20
2022-11-16T17:47:13.998Z,38.53
2022-11-16T17:49:42.738Z,37.30
2022-11-16T17:52:12.764Z,53.47
2022-11-16T17:55:04.807Z,52.00
2022-11-16T17:57:33.319Z,32.23
2022-11-16T18:00:02.214Z,47.60
2022-11-16T18:02:33.977Z,27.00
2022-11-16T18:05:02.646Z,75.60
2022-11-16T18:07:34.120Z,41.50
2022-11-16T18:10:06.230Z,64.97
2022-11-16T18:12:35.571Z,36.17
2022-11-16T18:15:29.576Z,66.07
2022-11-16T18:17:54.333Z,64.07
2022-11-16T18:20:24.296Z,63.00
2022-11-16T18:22:54.720Z,47.03
2022-11-16T18:25:23.630Z,69.30
2022-11-16T18:27:53.990Z,32.80
2022-11-16T18:30:24.202Z,31.30
2022-11-16T18:32:52.907Z,44.23
2022-11-16T18:35:21.787Z,61.93
2022-11-16T18:37:50.502Z,61.17
2022-11-16T18:40:21.111Z,46.37
2022-11-16T18:42:49.884Z,42.73
2022-11-16T18:45:18.599Z,55.73
2022-11-16T18:47:47.220Z,64.03
2022-11-16T18:50:21.357Z,45.70
2022-11-16T18:52:52.870Z,44.57
2022-11-16T18:55:23.149Z,34.10
2022-11-16T18:57:51.917Z,33.40
2022-11-16T19:00:21.452Z,29.40
2022-11-16T19:02:51.235Z,44.20
2022-11-16T19:05:20.072Z,57.83
2022-11-16T19:07:48.786Z,55.10
2022-11-16T19:10:17.523Z,60.47
2022-11-16T19:12:47.838Z,42.80
2022-11-16T19:15:29.794Z,49.40
2022-11-16T19:18:19.788Z,38.30
2022-11-16T19:20:47.027Z,55.73
2022-11-16T19:23:15.786Z,49.50
2022-11-16T19:25:45.766Z,83.40
2022-11-16T19:28:16.999Z,71.67
2022-11-16T19:30:47.306Z,49.27
2022-11-16T19:33:17.198Z,79.73
2022-11-16T19:35:47.328Z,66.90
2022-11-16T19:38:37.734Z,79.37
2022-11-16T19:41:09.721Z,42.07
2022-11-16T19:43:46.600Z,58.47
2022-11-16T19:47:04.066Z,44.77
2022-11-16T19:50:07.383Z,74.03
2022-11-16T19:53:03.119Z,53.40
2022-11-16T19:55:59.492Z,65.10
2022-11-16T19:58:33.509Z,59.53
2022-11-16T20:01:43.738Z,90.50
2022-11-16T20:04:14.285Z,72.90
2022-11-16T20:07:04.635Z,108.40
2022-11-16T20:09:40.831Z,55.37
2022-11-16T20:12:10.824Z,58.53
2022-11-16T20:14:41.431Z,68.90
2022-11-16T20:17:15.422Z,62.53
2022-11-16T20:19:47.898Z,86.60
2022-11-16T20:22:31.882Z,94.53
2022-11-16T20:25:13.410Z,81.23
2022-11-16T20:28:01.279Z,51.47
2022-11-16T20:30:40.460Z,132.27
2022-11-16T20:33:12.071Z,58.93
2022-11-16T20:35:42.465Z,108.70
2022-11-16T20:38:16.571Z,95.93
2022-11-16T20:40:47.763Z,72.70
2022-11-16T20:43:22.630Z,58.03
2022-11-16T20:45:56.775Z,88.80
2022-11-16T20:48:31.950Z,48.17
2022-11-16T20:51:07.829Z,46.97
2022-11-16T20:54:16.462Z,51.70
2022-11-16T20:57:11.030Z,48.83
2022-11-16T21:00:20.268Z,61.90
2022-11-16T21:02:57.707Z,89.23
2022-11-16T21:05:39.701Z,50.30
2022-11-16T21:08:17.901Z,43.90
2022-11-16T21:10:54.232Z,89.87
2022-11-16T21:13:44.713Z,62.60
2022-11-16T21:16:47.538Z,99.93
2022-11-16T21:20:28.167Z,50.30
2022-11-16T21:23:05.002Z,83.97
2022-11-16T21:25:41.387Z,65.20
2022-11-16T21:28:49.912Z,85.33
2022-11-16T21:31:38.743Z,61.33
2022-11-16T21:34:11.194Z,141.50
2022-11-16T21:36:48.585Z,82.03
2022-11-16T21:39:29.375Z,75.50
2022-11-16T21:42:13.144Z,106.97
2022-11-16T21:45:11.263Z,60.77
2022-11-16T21:48:53.338Z,64.60
2022-11-16T21:51:57.869Z,75.07
2022-11-16T21:54:56.172Z,138.13
2022-11-16T21:57:25.724Z,69.83
2022-11-16T22:00:02.314Z,75.47
2022-11-16T22:02:43.275Z,59.07
2022-11-16T22:05:30.276Z,95.13
2022-11-16T22:07:59.148Z,50.93
2022-11-16T22:10:29.176Z,94.10
2022-11-16T22:12:57.819Z,130.30
2022-11-16T22:15:27.372Z,74.50
2022-11-16T22:17:56.096Z,65.77
2022-11-16T22:20:25.091Z,61.93
2022-11-16T22:22:54.081Z,74.53
2022-11-16T22:25:24.361Z,63.83
2022-11-16T22:28:21.718Z,61.30
2022-11-16T22:30:51.406Z,70.67
2022-11-16T22:33:21.505Z,79.67
2022-11-16T22:35:50.265Z,79.73
2022-11-16T22:38:18.742Z,85.73
2022-11-16T22:40:51.565Z,58.60
2022-11-16T22:43:24.447Z,75.30
2022-11-16T22:45:53.156Z,67.00
2022-11-16T22:48:21.684Z,63.33
2022-11-16T22:50:50.174Z,71.83
2022-11-16T22:53:18.686Z,78.47
2022-11-16T22:55:47.220Z,64.03
2022-11-16T22:58:15.720Z,69.37
2022-11-16T23:00:45.603Z,70.37
2022-11-16T23:03:14.160Z,61.83
2022-11-16T23:05:42.889Z,64.30
2022-11-16T23:08:11.372Z,66.03
2022-11-16T23:10:59.841Z,63.20
2022-11-16T23:13:45.978Z,58.30
2022-11-16T23:16:15.829Z,78.23
2022-11-16T23:18:44.379Z,85.03
2022-11-16T23:21:30.270Z,62.13
2022-11-16T23:24:19.139Z,62.73
2022-11-16T23:27:05.192Z,63.13
2022-11-16T23:29:33.883Z,67.53
2022-11-16T23:32:03.814Z,60.80
2022-11-16T23:34:32.408Z,72.17
2022-11-16T23:37:04.431Z,62.43
2022-11-16T23:39:33.342Z,66.13
2022-11-16T23:42:19.592Z,69.80
2022-11-16T23:44:48.154Z,65.30
2022-11-16T23:47:18.136Z,66.43
2022-11-16T23:49:46.665Z,58.00
2022-11-16T23:52:15.575Z,63.03
2022-11-16T23:54:44.152Z,72.07
2022-11-16T23:57:13.432Z,59.40
2022-11-16T23:59:42.011Z,77.43
